hero-logo

Top 15 Knowers of KEY Keycorp - 2017-07-25

Rank Fund Result (K)
1 Samlyn Capital Llc $1,469
2 Endeavour Capital Advisors Inc $403
3 Carlson Capital L P $331
4 A R T Advisors Llc $160
5 Element Capital Management Llc $156
6 Wasatch Advisors Inc $103
7 Interval Partners Lp $74
8 Usa Financial Portformulas Corp $73
9 Amf Pensionsforsakring Ab $72
10 Public Employees Retirement System Of Ohio $58
11 10-15 Associates Inc $54
12 Prospector Partners Llc $51
13 Wbi Investments Inc $47
14 California State Teachers Retirement System $47
15 Ahl Partners Llp $36
Price Chart and News From Google Finance for KEY Keycorp
Owner Date Shares Change Price Change Result (K)
10-15 Associates Inc 2017-03-31 -111,916 $-0.49 $54
Acrospire Investment Management Llc 2017-03-31 -1,052 $-0.49 $0
Afam Capital Inc 2017-03-31 4,783 $-0.49 $-2
Ahl Partners Llp 2017-03-31 -74,966 $-0.49 $36
Allsquare Wealth Management Llc 2017-03-31 0 $-0.49 $0
Amalgamated Bank 2017-03-31 4,359 $-0.49 $-2
Amf Pensionsforsakring Ab 2017-03-31 -147,861 $-0.49 $72
Ancora Advisors Llc 2017-03-31 -12,625 $-0.49 $6
Aperio Group Llc 2017-03-31 -25,442 $-0.49 $12
Archford Capital Strategies Llc 2017-03-31 0 $-0.49 $0
Arrow Financial Corp 2017-03-31 0 $-0.49 $0
A R T Advisors Llc 2017-03-31 -326,800 $-0.49 $160
Assetmark Inc 2017-03-31 1,521 $-0.49 $0
Aua Capital Management Llc 2017-03-31 0 $-0.49 $0
Balentine Llc 2017-03-31 180 $-0.49 $0
Blair William Co Il 2017-03-31 970 $-0.49 $0
Bokf Na 2017-03-31 1,200 $-0.49 $0
Brinker Capital Inc 2017-03-31 36,957 $-0.49 $-18
Brown Brothers Harriman Co 2017-03-31 5,399 $-0.49 $-2
B S Pension Fund Trustee Ltd Acting For The British Steel P 2017-03-31 -6,034 $-0.49 $2
California State Teachers Retirement System 2017-03-31 -96,200 $-0.49 $47
Capital Guardian Trust Co 2017-03-31 0 $-0.49 $0
Carlson Capital L P 2017-03-31 -677,100 $-0.49 $331
Ccm Investment Advisers Llc 2017-03-31 -5,700 $-0.49 $2
Cetera Advisor Networks Llc 2017-03-31 484 $-0.49 $0
Cetera Advisors Llc 2017-03-31 -989 $-0.49 $0
Chartwell Investment Partners Llc 2017-03-31 -1,950 $-0.49 $0
Clover Partners L P 2017-03-31 330,000 $-0.49 $-161
Cornerstone Capital Management Holdings Llc 2017-03-31 341,056 $-0.49 $-167
Crestline Management Lp 2017-03-31 210,000 $-0.49 $-102
Css Llc Il 2017-03-31 0 $-0.49 $0
D A Davidson Co 2017-03-31 -4,295 $-0.49 $2
Dana Investment Advisors Inc 2017-03-31 -41,957 $-0.49 $20
Denver Investment Advisors Llc 2017-03-31 357 $-0.49 $0
Earnest Partners Llc 2017-03-31 8,760 $-0.49 $-4
Element Capital Management Llc 2017-03-31 -319,861 $-0.49 $156
Elkhorn Investments Llc 2017-03-31 -44,664 $-0.49 $21
Endeavour Capital Advisors Inc 2017-03-31 -822,966 $-0.49 $403
Envestnet Asset Management Inc 2017-03-31 -17,256 $-0.49 $8
Fdx Advisors Inc 2017-03-31 1,312 $-0.49 $0
Fiera Capital Corp 2017-03-31 2,900 $-0.49 $-1
First Republic Investment Management Inc 2017-03-31 15,669 $-0.49 $-7
Focused Wealth Management Inc 2017-03-31 5,450 $-0.49 $-2
Folger Hill Asset Management Lp 2017-03-31 95,591 $-0.49 $-46
Gillson Capital Lp 2017-03-31 662,278 $-0.49 $-324
Glassman Wealth Services 2017-03-31 190 $-0.49 $0
Glen Harbor Capital Management Llc 2017-03-31 71,260 $-0.49 $-34
Glg Llc 2017-03-31 -134 $-0.49 $0
Gotham Asset Management Llc 2017-03-31 47,111 $-0.49 $-23
Graticule Asia Macro Advisors Llc 2017-03-31 -30,995 $-0.49 $15
Green Square Capital Llc 2017-03-31 0 $-0.49 $0
Group One Trading L P 2017-03-31 -1,285 $-0.49 $0
Gsa Capital Partners Llp 2017-03-31 37,021 $-0.49 $-18
Guggenheim Capital Llc 2017-03-31 146,047 $-0.49 $-71
Hamel Associates Inc 2017-03-31 11,522 $-0.49 $-5
Hanlon Investment Management Inc 2017-03-31 -14,768 $-0.49 $7
Hcr Wealth Advisors 2017-03-31 0 $-0.49 $0
Highlander Capital Management Llc 2017-03-31 -5,000 $-0.49 $2
Horizon Kinetics Llc 2017-03-31 61,069 $-0.49 $-29
Ibex Wealth Advisors 2017-03-31 81,256 $-0.49 $-39
Ifp Advisors Inc 2017-03-31 1,671 $-0.49 $0
Iht Wealth Management Llc 2017-03-31 -538 $-0.49 $0
Intact Investment Management Inc 2017-03-31 -21,100 $-0.49 $10
Interval Partners Lp 2017-03-31 -152,478 $-0.49 $74
Invictus Rg 2017-03-31 2,423 $-0.49 $-1
Israel Discount Bank Of New York 2017-03-31 -98 $-0.49 $0
Itau Unibanco Holding S A 2017-03-31 -1,750 $-0.49 $0
Jane Street Group Llc 2017-03-31 5,055 $-0.49 $-2
Kelly Lawrence W Associates Inc Ca 2017-03-31 16 $-0.49 $0
Kentucky Retirement Systems 2017-03-31 -9,664 $-0.49 $4
Kentucky Retirement Systems Insurance Trust Fund 2017-03-31 -5,990 $-0.49 $2
Krilogy Financial Llc 2017-03-31 0 $-0.49 $0
Ladenburg Thalmann Financial Services Inc 2017-03-31 -8,190 $-0.49 $4
Laffer Investments 2017-03-31 0 $-0.49 $0
Laurel Wealth Advisors Inc 2017-03-31 48,011 $-0.49 $-23
Lcnb Corp 2017-03-31 0 $-0.49 $0
Lenox Wealth Management Inc 2017-03-31 -474 $-0.49 $0
Lgl Partners Llc 2017-03-31 -1,994 $-0.49 $0
Lumbard Kellner Llc 2017-03-31 -600 $-0.49 $0
Maple Capital Management Inc 2017-03-31 -5,692 $-0.49 $2
Mariner Wealth Advisors Llc 2017-03-31 -3,304 $-0.49 $1
Mason Street Advisors Llc 2017-03-31 366 $-0.49 $0
Meadow Creek Investment Management Llc 2017-03-31 55,990 $-0.49 $-27
M Holdings Securities Inc 2017-03-31 -126 $-0.49 $0
Monroe Bank Trust Mi 2017-03-31 -196 $-0.49 $0
National Asset Management Inc 2017-03-31 -1,260 $-0.49 $0
New York Life Trust Co 2017-03-31 199 $-0.49 $0
Northwestern Mutual Investment Management Company Llc 2017-03-31 92,688 $-0.49 $-45
Northwestern Mutual Wealth Management Co 2017-03-31 -10,692 $-0.49 $5
Paloma Partners Management Co 2017-03-31 9,807 $-0.49 $-4
Picton Mahoney Asset Management 2017-03-31 148,350 $-0.49 $-72
Piedmont Investment Advisors Llc 2017-03-31 -3,056 $-0.49 $1
Pinkerton Retirement Specialists Llc 2017-03-31 -29 $-0.49 $0
Pittenger Anderson Inc 2017-03-31 0 $-0.49 $0
Polar Capital Llp 2017-03-31 34,329 $-0.49 $-16
Proficio Capital Partners Llc 2017-03-31 154 $-0.49 $0
Prospector Partners Llc 2017-03-31 -105,500 $-0.49 $51
Public Employees Retirement System Of Ohio 2017-03-31 -119,100 $-0.49 $58
Rainier Investment Management Llc 2017-03-31 18,840 $-0.49 $-9
Raymond James Associates 2017-03-31 100,057 $-0.49 $-49
Riverhead Capital Management Llc 2017-03-31 63,606 $-0.49 $-31
Salem Investment Counselors Inc 2017-03-31 -150 $-0.49 $0
Samlyn Capital Llc 2017-03-31 -2,998,568 $-0.49 $1,469
Scotia Capital Inc 2017-03-31 3,890 $-0.49 $-1
Segall Bryant Hamill Llc 2017-03-31 0 $-0.49 $0
South Street Advisors Llc 2017-03-31 28,770 $-0.49 $-14
Sowell Financial Services Llc 2017-03-31 -1,458 $-0.49 $0
Squarepoint Ops Llc 2017-03-31 188,737 $-0.49 $-92
Sterling Capital Management Llc 2017-03-31 1,305 $-0.49 $0
Sterling Investment Advisors Ltd 2017-03-31 4,000 $-0.49 $-1
Stifel Financial Corp 2017-03-31 19,345 $-0.49 $-9
Tortoise Investment Management Llc 2017-03-31 0 $-0.49 $0
Tributary Capital Management Llc 2017-03-31 0 $-0.49 $0
Uniplan Investment Counsel Inc 2017-03-31 269,104 $-0.49 $-131
United Capital Financial Advisers Llc 2017-03-31 -1,673 $-0.49 $0
Usa Financial Portformulas Corp 2017-03-31 -150,971 $-0.49 $73
Veritable L P 2017-03-31 4,582 $-0.49 $-2
Vertex One Asset Management Inc 2017-03-31 0 $-0.49 $0
Voloridge Investment Management Llc 2017-03-31 697,843 $-0.49 $-341
Walleye Trading Llc 2017-03-31 -9,535 $-0.49 $4
Wasatch Advisors Inc 2017-03-31 -211,221 $-0.49 $103
Wbi Investments Inc 2017-03-31 -96,287 $-0.49 $47
Webster Bank N A 2017-03-31 25,981 $-0.49 $-12
Yorkbridge Wealth Partners Llc 2017-03-31 500 $-0.49 $0